Time;durP1;ratioP1;P1;durP2;ratioP2;P2;SDS_P1;SDS_P2;PMS_P1;PMS_P2;Temp;Humidity;BMP_temperature;BMP_pressure;BME280_temperature;BME280_humidity;BME280_pressure;Samples;Min_cycle;Max_cycle;Signal;HPM_P1;HPM_P2
2023/05/23 00:01:15;;;;;;;;;;;;;;;21.63;53.45;100935.34;5052247;28;19916;-87
2023/05/23 00:03:41;;;;;;;;;;;;;;;21.66;53.33;100937.13;5032490;28;20278;-87
2023/05/23 00:06:07;;;;;;;;;;;;;;;21.66;53.33;100939.78;5035750;28;19923;-88
2023/05/23 00:08:32;;;;;;;;;;;;;;;21.66;53.21;100929.16;5059691;28;20415;-87
2023/05/23 00:10:58;;;;;;;;;;;;;;;21.65;53.27;100930.03;5035605;28;19938;-87
2023/05/23 00:13:24;;;;;;;;;;;;;;;21.63;52.82;100935.34;5056382;28;19916;-86
2023/05/23 00:15:49;;;;;;;;;;;;;;;21.62;53.55;100933.56;5058609;28;19923;-87
2023/05/23 00:18:15;;;;;;;;;;;;;;;21.62;53.15;100924.69;5041442;28;20310;-87
2023/05/23 00:20:41;;;;;;;;;;;;;;;21.53;53.35;100922.81;5051769;28;19919;-87
2023/05/23 00:23:08;;;;;;;;;;;;;;;21.59;53.08;100927.28;5051235;28;19912;-87
2023/05/23 00:25:34;;;;;;;;;;;;;;;21.53;52.91;100915.72;5049900;28;19912;-87
2023/05/23 00:28:00;;;;;;;;;;;;;;;21.47;52.95;100914.78;5051671;28;20404;-87
2023/05/23 00:30:26;;;;;;;;;;;;;;;21.44;53.33;100915.63;5034813;28;19923;-87
2023/05/23 00:32:53;;;;;;;;;;;;;;;21.47;53.42;100910.34;5035217;28;19913;-87
2023/05/23 00:35:19;;;;;;;;;;;;;;;21.41;53.26;100910.25;5050261;28;19935;-86
2023/05/23 00:37:44;;;;;;;;;;;;;;;21.46;53.35;100910.31;5050973;28;19913;-88
2023/05/23 00:40:10;;;;;;;;;;;;;;;21.40;53.07;100912.88;5036955;28;19944;-87
2023/05/23 00:42:36;;;;;;;;;;;;;;;21.43;53.33;100905.88;5061210;28;20404;-87
2023/05/23 00:45:01;;;;;;;;;;;;;;;21.43;53.13;100915.63;5050633;28;19917;-87
2023/05/23 00:47:27;;;;;;;;;;;;;;;21.49;53.39;100921.00;5050578;28;19921;-88
2023/05/23 00:49:53;;;;;;;;;;;;;;;21.46;53.28;100915.63;5064113;28;19921;-87
2023/05/23 00:52:18;;;;;;;;;;;;;;;21.49;53.41;100921.88;5050680;28;19912;-87
2023/05/23 00:54:44;;;;;;;;;;;;;;;21.51;53.25;100916.59;5050482;28;20321;-87
2023/05/23 00:57:10;;;;;;;;;;;;;;;21.53;53.30;100918.41;5050173;28;19913;-87
2023/05/23 00:59:36;;;;;;;;;;;;;;;21.52;53.11;100919.25;5032924;28;19917;-86
2023/05/23 01:02:01;;;;;;;;;;;;;;;21.54;53.08;100919.28;5057714;28;19920;-87
2023/05/23 01:04:27;;;;;;;;;;;;;;;21.51;53.18;100925.44;5063547;28;19971;-87
2023/05/23 01:06:55;;;;;;;;;;;;;;;21.52;53.41;100919.25;5064771;28;19921;-87
2023/05/23 01:09:22;;;;;;;;;;;;;;;21.51;53.07;100912.16;5035716;28;19920;-87
2023/05/23 01:11:57;;;;;;;;;;;;;;;21.50;53.20;100910.38;5051493;28;20286;-87
2023/05/23 01:14:34;;;;;;;;;;;;;;;21.53;53.37;100914.84;5063470;28;20011;-86
2023/05/23 01:17:02;;;;;;;;;;;;;;;21.53;53.10;100907.75;5049989;28;19912;-87
2023/05/23 01:19:40;;;;;;;;;;;;;;;21.55;52.71;100919.31;5050430;28;19920;-87
2023/05/23 01:22:10;;;;;;;;;;;;;;;21.51;53.41;100912.16;5033724;28;19936;-87
2023/05/23 01:24:56;;;;;;;;;;;;;;;21.50;53.04;100909.47;5049846;28;19923;-87
2023/05/23 01:27:41;;;;;;;;;;;;;;;21.52;53.16;100903.31;5032105;28;19956;-88
2023/05/23 01:30:07;;;;;;;;;;;;;;;21.54;53.01;100913.97;5035813;28;19913;-86
2023/05/23 01:32:33;;;;;;;;;;;;;;;21.52;53.32;100911.28;5042651;28;19917;-88
2023/05/23 01:34:59;;;;;;;;;;;;;;;21.52;53.19;100913.94;5036695;28;20348;-87
2023/05/23 01:37:24;;;;;;;;;;;;;;;21.54;52.91;100913.97;5054303;28;19912;-86
2023/05/23 01:39:50;;;;;;;;;;;;;;;21.51;53.06;100912.16;5055782;28;20313;-86
2023/05/23 01:42:28;;;;;;;;;;;;;;;21.51;53.03;100921.91;5059684;28;20361;-86
2023/05/23 01:44:58;;;;;;;;;;;;;;;21.52;53.06;100923.69;5076165;28;19954;-87
2023/05/23 01:47:23;;;;;;;;;;;;;;;21.53;53.01;100928.13;5078429;28;19927;-86
2023/05/23 01:49:48;;;;;;;;;;;;;;;21.53;53.09;100926.38;5047454;28;19964;-87
2023/05/23 01:52:14;;;;;;;;;;;;;;;21.48;53.08;100921.84;5053977;28;19913;-87
2023/05/23 01:54:41;;;;;;;;;;;;;;;21.50;53.15;100921.00;5054500;28;20025;-87
2023/05/23 01:57:07;;;;;;;;;;;;;;;21.48;52.96;100924.53;5021579;28;19971;-87
2023/05/23 01:59:33;;;;;;;;;;;;;;;21.49;53.15;100918.34;5037278;28;19916;-87
2023/05/23 02:01:58;;;;;;;;;;;;;;;21.52;52.92;100919.25;5058840;28;20000;-89
2023/05/23 02:04:24;;;;;;;;;;;;;;;21.52;52.82;100921.03;5053786;28;20408;-89
2023/05/23 02:06:49;;;;;;;;;;;;;;;21.50;52.87;100922.78;5053768;28;19974;-88
2023/05/23 02:09:15;;;;;;;;;;;;;;;21.49;53.02;100924.53;5063841;28;19920;-88
2023/05/23 02:11:41;;;;;;;;;;;;;;;21.48;53.00;100922.78;5053458;28;19963;-88
2023/05/23 02:14:10;;;;;;;;;;;;;;;21.50;52.85;100921.00;5036591;28;19917;-89
2023/05/23 02:16:35;;;;;;;;;;;;;;;21.52;52.97;100927.22;5053308;28;19917;-88
2023/05/23 02:19:00;;;;;;;;;;;;;;;21.52;52.81;100923.69;5053626;28;19977;-88
2023/05/23 02:21:26;;;;;;;;;;;;;;;21.50;52.87;100918.34;5053500;28;20510;-87
2023/05/23 02:23:51;;;;;;;;;;;;;;;21.51;52.77;100913.94;5053349;28;20373;-87
2023/05/23 02:26:17;;;;;;;;;;;;;;;21.52;52.80;100915.72;5064704;28;20507;-88
2023/05/23 02:28:42;;;;;;;;;;;;;;;21.49;52.87;100907.72;5037217;28;19916;-87
2023/05/23 02:31:08;;;;;;;;;;;;;;;21.46;52.82;100905.94;5054182;28;20301;-87
2023/05/23 02:33:33;;;;;;;;;;;;;;;21.47;53.02;100912.13;5053343;28;19955;-88
2023/05/23 02:35:58;;;;;;;;;;;;;;;21.46;53.10;100912.97;5053356;28;19919;-86
2023/05/23 02:38:25;;;;;;;;;;;;;;;21.46;52.96;100911.25;5054005;28;20310;-88
2023/05/23 02:40:52;;;;;;;;;;;;;;;21.44;53.02;100912.97;5061249;28;20385;-87
2023/05/23 02:43:18;;;;;;;;;;;;;;;21.45;52.83;100919.19;5057379;28;20027;-87
2023/05/23 02:45:43;;;;;;;;;;;;;;;21.47;52.84;100914.78;5061745;28;20018;-88
2023/05/23 02:48:10;;;;;;;;;;;;;;;21.47;52.87;100915.66;5064705;28;20320;-88
2023/05/23 02:50:37;;;;;;;;;;;;;;;21.43;52.77;100911.19;5054048;28;19925;-88
2023/05/23 02:53:02;;;;;;;;;;;;;;;21.44;52.98;100923.63;5052825;28;19920;-87
2023/05/23 02:55:28;;;;;;;;;;;;;;;21.43;53.06;100915.63;5072628;28;20451;-86
2023/05/23 02:57:53;;;;;;;;;;;;;;;21.44;52.78;100920.03;5075431;28;19912;-86
2023/05/23 03:00:19;;;;;;;;;;;;;;;21.43;52.99;100924.47;5075783;28;19960;-88
2023/05/23 03:02:44;;;;;;;;;;;;;;;21.42;52.71;100911.16;5062336;28;20389;-87
2023/05/23 03:05:28;;;;;;;;;;;;;;;21.43;52.92;100913.84;5066095;28;19920;-86
2023/05/23 03:07:54;;;;;;;;;;;;;;;21.42;52.84;100911.16;5086667;28;19920;-86
2023/05/23 03:10:19;;;;;;;;;;;;;;;21.41;52.68;100920.88;5084116;28;19923;-86
2023/05/23 03:12:45;;;;;;;;;;;;;;;21.39;52.91;100917.28;5091973;28;19923;-86
2023/05/23 03:15:11;;;;;;;;;;;;;;;21.37;53.15;100918.16;5072990;28;20045;-88
2023/05/23 03:17:36;;;;;;;;;;;;;;;21.36;52.71;100914.63;5062587;28;19923;-91
2023/05/23 03:20:04;;;;;;;;;;;;;;;21.34;52.94;100925.22;5075485;28;19916;-91
2023/05/23 03:22:37;;;;;;;;;;;;;;;21.38;52.91;100925.25;5092329;28;20731;-92
2023/05/23 03:25:03;;;;;;;;;;;;;;;21.39;52.80;100935.00;5060351;28;20048;-91
2023/05/23 03:27:35;;;;;;;;;;;;;;;21.31;53.23;100925.19;5090698;28;19920;-92
2023/05/23 03:30:02;;;;;;;;;;;;;;;21.34;52.99;100927.88;5051121;28;19916;-93
2023/05/23 03:32:38;;;;;;;;;;;;;;;21.37;52.93;100921.69;5062011;28;19920;-92
2023/05/23 03:35:15;;;;;;;;;;;;;;;21.33;53.14;100931.38;5066755;28;19915;-92
2023/05/23 03:37:50;;;;;;;;;;;;;;;21.28;52.73;100924.25;5075735;28;20657;-92
2023/05/23 03:40:15;;;;;;;;;;;;;;;21.29;53.33;100932.25;5085150;28;19916;-91
2023/05/23 03:42:44;;;;;;;;;;;;;;;21.23;53.13;100931.25;5048485;28;20327;-92
2023/05/23 03:45:12;;;;;;;;;;;;;;;21.24;52.99;100927.75;5072558;28;19916;-93
2023/05/23 03:47:41;;;;;;;;;;;;;;;21.28;53.55;100930.44;5075205;28;19920;-92
2023/05/23 03:50:25;;;;;;;;;;;;;;;21.30;53.22;100935.78;5065989;28;20013;-93
2023/05/23 03:52:54;;;;;;;;;;;;;;;21.28;53.44;100937.53;5101115;28;19923;-92
2023/05/23 03:55:31;;;;;;;;;;;;;;;21.27;53.40;100939.31;5070843;28;19987;-91
2023/05/23 03:57:59;;;;;;;;;;;;;;;21.21;52.93;100947.19;5071365;28;20340;-92
2023/05/23 04:00:25;;;;;;;;;;;;;;;21.19;53.24;100948.03;5065732;28;19920;-91
2023/05/23 04:03:03;;;;;;;;;;;;;;;21.18;53.90;100948.91;5052248;28;20378;-94
2023/05/23 04:05:42;;;;;;;;;;;;;;;21.22;53.58;100941.00;5085560;28;19924;-93
2023/05/23 04:08:14;;;;;;;;;;;;;;;21.26;53.47;100944.59;5056416;28;19926;-92
2023/05/23 04:10:50;;;;;;;;;;;;;;;21.26;53.34;100942.81;5090492;28;19923;-92
2023/05/23 04:13:17;;;;;;;;;;;;;;;21.27;53.30;100938.38;5061633;28;19948;-90
2023/05/23 04:15:51;;;;;;;;;;;;;;;21.27;53.31;100938.38;5059467;28;19916;-92
2023/05/23 04:18:18;;;;;;;;;;;;;;;21.25;53.31;100941.06;5088217;28;20409;-90
2023/05/23 04:21:08;;;;;;;;;;;;;;;21.28;53.19;100941.06;5052047;28;19951;-92
2023/05/23 04:23:40;;;;;;;;;;;;;;;21.27;53.15;100938.38;5085608;28;20003;-91
2023/05/23 04:26:06;;;;;;;;;;;;;;;21.27;53.44;100943.69;5066810;28;19923;-91
2023/05/23 04:28:33;;;;;;;;;;;;;;;21.26;53.39;100944.59;5052367;28;19956;-91
2023/05/23 04:30:58;;;;;;;;;;;;;;;21.22;53.09;100948.06;5050651;28;19921;-92
2023/05/23 04:33:29;;;;;;;;;;;;;;;21.21;53.43;100952.50;5059897;28;19917;-91
2023/05/23 04:35:56;;;;;;;;;;;;;;;21.18;53.31;100954.22;5061737;28;19923;-92
2023/05/23 04:38:23;;;;;;;;;;;;;;;21.22;53.49;100951.63;5053970;28;20007;-92
2023/05/23 04:40:52;;;;;;;;;;;;;;;21.21;53.05;100948.94;5071031;28;19916;-93
2023/05/23 04:43:25;;;;;;;;;;;;;;;21.16;53.29;100948.88;5073619;28;19926;-91
2023/05/23 04:45:56;;;;;;;;;;;;;;;21.18;53.34;100951.56;5067199;28;19916;-88
2023/05/23 04:48:21;;;;;;;;;;;;;;;21.20;53.55;100957.78;5063247;28;19920;-90
2023/05/23 04:50:47;;;;;;;;;;;;;;;21.19;53.68;100961.28;5061837;28;19968;-90
2023/05/23 04:53:13;;;;;;;;;;;;;;;21.22;53.44;100959.59;5081809;28;19920;-90
2023/05/23 04:55:39;;;;;;;;;;;;;;;21.22;53.35;100964.91;5112042;28;19900;-92
2023/05/23 04:58:05;;;;;;;;;;;;;;;21.21;53.41;100954.25;5098985;28;19912;-93
2023/05/23 05:00:34;;;;;;;;;;;;;;;21.22;53.30;100962.25;5111304;28;19960;-92
2023/05/23 05:03:02;;;;;;;;;;;;;;;21.22;53.37;100951.63;5080402;28;20378;-93
2023/05/23 05:05:47;;;;;;;;;;;;;;;21.24;53.25;100954.31;5063682;28;19923;-93
2023/05/23 05:08:18;;;;;;;;;;;;;;;21.22;53.33;100962.25;5071802;28;19920;-92
2023/05/23 05:10:46;;;;;;;;;;;;;;;21.21;53.08;100964.88;5062894;28;20011;-92
2023/05/23 05:13:11;;;;;;;;;;;;;;;21.24;53.07;100960.50;5089977;28;19924;-92
2023/05/23 05:15:40;;;;;;;;;;;;;;;21.22;53.02;100964.91;5060308;28;19973;-92
2023/05/23 05:18:05;;;;;;;;;;;;;;;21.15;53.20;100976.31;5073047;28;19916;-88
2023/05/23 05:20:32;;;;;;;;;;;;;;;21.14;53.38;100961.25;5065480;28;19938;-90
2023/05/23 05:22:58;;;;;;;;;;;;;;;21.10;55.13;100972.69;5071941;28;19920;-85
2023/05/23 05:25:23;;;;;;;;;;;;;;;20.98;55.09;100969.88;5082911;28;19916;-89
2023/05/23 05:27:49;;;;;;;;;;;;;;;21.00;53.79;100971.69;5042555;28;20423;-88
2023/05/23 05:30:15;;;;;;;;;;;;;;;21.13;53.30;100981.59;5050325;28;20309;-88
2023/05/23 05:32:40;;;;;;;;;;;;;;;21.20;52.50;100979.91;5085530;28;20412;-86
2023/05/23 05:35:07;;;;;;;;;;;;;;;21.11;51.56;100971.84;5079440;28;19924;-87
2023/05/23 05:37:32;;;;;;;;;;;;;;;21.18;50.94;100978.13;5088862;28;20335;-86
2023/05/23 05:39:58;;;;;;;;;;;;;;;21.20;50.41;100973.72;5089380;28;20003;-87
2023/05/23 05:42:24;;;;;;;;;;;;;;;21.24;50.22;100980.88;5091447;28;19973;-89
2023/05/23 05:44:49;;;;;;;;;;;;;;;21.29;49.73;100981.81;5074350;28;19920;-88
2023/05/23 05:47:14;;;;;;;;;;;;;;;21.34;49.49;100985.44;5085854;28;20002;-88
2023/05/23 05:49:40;;;;;;;;;;;;;;;21.40;49.40;100995.22;5055353;28;19955;-87
2023/05/23 05:52:06;;;;;;;;;;;;;;;21.41;49.05;100989.94;5052910;28;19916;-84
2023/05/23 05:54:32;;;;;;;;;;;;;;;21.43;49.07;100990.88;5084125;28;19926;-89
2023/05/23 05:56:57;;;;;;;;;;;;;;;21.50;48.90;100987.44;5053417;28;19916;-87
2023/05/23 05:59:22;;;;;;;;;;;;;;;21.49;48.68;100996.28;5069872;28;19913;-88
2023/05/23 06:01:50;;;;;;;;;;;;;;;21.51;48.55;101001.63;5069828;28;20424;-88
2023/05/23 06:04:15;;;;;;;;;;;;;;;21.58;48.55;100994.63;5089725;28;20014;-88
2023/05/23 06:06:42;;;;;;;;;;;;;;;21.64;48.44;101005.34;5044614;28;19977;-90
2023/05/23 06:09:07;;;;;;;;;;;;;;;21.82;47.93;100996.66;5069891;28;20404;-89
2023/05/23 06:11:33;;;;;;;;;;;;;;;21.70;47.98;101011.63;5083748;28;19916;-87
2023/05/23 06:13:59;;;;;;;;;;;;;;;21.68;47.99;101015.13;5091105;28;20458;-90
2023/05/23 06:16:25;;;;;;;;;;;;;;;21.56;48.45;101021.16;5094533;28;19920;-89
2023/05/23 06:18:50;;;;;;;;;;;;;;;21.71;47.96;101018.69;5057244;28;19913;-88
2023/05/23 06:21:15;;;;;;;;;;;;;;;21.63;48.10;101016.81;5073419;28;19917;-87
2023/05/23 06:23:41;;;;;;;;;;;;;;;21.72;47.89;101023.16;5073144;28;19919;-87
2023/05/23 06:26:09;;;;;;;;;;;;;;;21.65;48.11;101023.06;5087118;28;20400;-87
2023/05/23 06:28:36;;;;;;;;;;;;;;;21.71;47.92;101021.34;5076115;28;19920;-86
2023/05/23 06:31:01;;;;;;;;;;;;;;;21.70;47.78;101016.94;5076324;28;19912;-87
2023/05/23 06:33:27;;;;;;;;;;;;;;;21.77;47.52;101020.53;5044675;28;20477;-88
2023/05/23 06:35:52;;;;;;;;;;;;;;;21.77;47.53;101017.00;5076206;28;19916;-88
2023/05/23 06:38:18;;;;;;;;;;;;;;;21.80;47.58;101015.28;5076082;28;19912;-86
2023/05/23 06:40:43;;;;;;;;;;;;;;;21.75;47.47;101009.00;5094423;28;19912;-88
2023/05/23 06:43:10;;;;;;;;;;;;;;;21.86;47.22;101006.47;5063262;28;19919;-89
2023/05/23 06:45:36;;;;;;;;;;;;;;;21.89;47.17;101010.06;5093891;28;19912;-89
2023/05/23 06:48:02;;;;;;;;;;;;;;;21.85;47.25;101010.91;5062997;28;19946;-88
2023/05/23 06:50:29;;;;;;;;;;;;;;;21.85;47.13;101008.25;5059366;28;19916;-88
2023/05/23 06:52:55;;;;;;;;;;;;;;;21.91;46.94;101005.66;5094123;28;19912;-89
2023/05/23 06:55:20;;;;;;;;;;;;;;;22.00;46.73;101007.53;5094052;28;19927;-89
2023/05/23 06:57:46;;;;;;;;;;;;;;;21.88;47.00;100999.41;5076075;28;19923;-89
2023/05/23 07:00:12;;;;;;;;;;;;;;;21.89;46.97;101002.09;5094222;28;19912;-89
2023/05/23 07:02:38;;;;;;;;;;;;;;;21.86;46.92;101001.16;5093507;28;20381;-90
2023/05/23 07:05:05;;;;;;;;;;;;;;;21.88;46.86;101002.06;5087480;28;19912;-90
2023/05/23 07:07:30;;;;;;;;;;;;;;;21.82;47.00;100996.66;5094289;28;20347;-90
2023/05/23 07:09:56;;;;;;;;;;;;;;;21.81;47.05;101001.09;5056082;28;20175;-90
2023/05/23 07:12:21;;;;;;;;;;;;;;;21.88;46.73;100994.09;5090234;28;19924;-89
2023/05/23 07:14:48;;;;;;;;;;;;;;;21.85;46.77;100992.28;5075492;28;20380;-90
2023/05/23 07:17:13;;;;;;;;;;;;;;;21.78;47.06;100992.19;5093510;28;20010;-89
2023/05/23 07:19:38;;;;;;;;;;;;;;;21.94;46.61;100992.38;5076171;28;20365;-91
2023/05/23 07:22:04;;;;;;;;;;;;;;;21.87;46.65;100993.19;5056038;28;19922;-91
2023/05/23 07:24:30;;;;;;;;;;;;;;;21.83;46.69;100982.53;5072492;28;19939;-89
2023/05/23 07:26:55;;;;;;;;;;;;;;;21.93;46.55;100990.63;5092341;28;19952;-90
2023/05/23 07:29:21;;;;;;;;;;;;;;;21.89;46.63;100999.44;5092748;28;19920;-84
2023/05/23 07:31:46;;;;;;;;;;;;;;;21.85;46.58;100994.06;5091604;28;19973;-85
2023/05/23 07:34:12;;;;;;;;;;;;;;;21.86;46.72;100996.72;5091172;28;19947;-84
2023/05/23 07:36:39;;;;;;;;;;;;;;;21.80;46.62;100995.75;5086257;28;20019;-80
2023/05/23 07:39:05;;;;;;;;;;;;;;;21.82;46.66;100996.66;5072694;28;20358;-85
2023/05/23 07:41:31;;;;;;;;;;;;;;;21.94;46.31;100994.16;5091911;28;19916;-85
2023/05/23 07:43:56;;;;;;;;;;;;;;;21.84;46.52;100998.47;5090956;28;19916;-88
2023/05/23 07:46:22;;;;;;;;;;;;;;;21.82;46.36;101005.53;5062815;28;19928;-84
2023/05/23 07:48:47;;;;;;;;;;;;;;;21.89;46.46;101009.19;5093278;28;19962;-85
2023/05/23 07:51:13;;;;;;;;;;;;;;;21.83;46.42;101006.44;5067817;28;19912;-85
2023/05/23 07:53:39;;;;;;;;;;;;;;;21.90;46.17;101003.84;5091237;28;19973;-86
2023/05/23 07:56:05;;;;;;;;;;;;;;;21.92;46.24;100998.56;5092726;28;20411;-84
2023/05/23 07:58:31;;;;;;;;;;;;;;;21.85;46.36;100994.06;5092614;28;20405;-86
2023/05/23 08:00:56;;;;;;;;;;;;;;;21.91;46.37;101005.66;5044713;28;19916;-85
2023/05/23 08:03:22;;;;;;;;;;;;;;;21.96;45.99;100993.28;5092778;28;19965;-84
2023/05/23 08:05:48;;;;;;;;;;;;;;;22.03;45.87;100985.38;5092813;28;19916;-84
2023/05/23 08:08:14;;;;;;;;;;;;;;;21.95;46.11;100996.84;5079323;28;19974;-85
2023/05/23 08:10:39;;;;;;;;;;;;;;;21.81;46.36;100995.78;5095543;28;19916;-84
2023/05/23 08:13:05;;;;;;;;;;;;;;;21.78;46.56;100998.44;5095123;28;19912;-85
2023/05/23 08:15:32;;;;;;;;;;;;;;;21.80;46.44;100995.75;5072327;28;19919;-85
2023/05/23 08:17:57;;;;;;;;;;;;;;;21.88;46.23;100994.09;5073520;28;19920;-85
2023/05/23 08:20:29;;;;;;;;;;;;;;;21.86;46.27;100995.84;5088908;28;19920;-85
2023/05/23 08:22:57;;;;;;;;;;;;;;;21.84;46.30;100997.56;5079839;28;19917;-81
2023/05/23 08:25:23;;;;;;;;;;;;;;;21.79;46.40;100996.66;5078514;28;20404;-85
2023/05/23 08:27:49;;;;;;;;;;;;;;;21.77;46.37;101006.38;5084002;28;20453;-85
2023/05/23 08:30:14;;;;;;;;;;;;;;;21.88;46.09;101005.59;5091409;28;20006;-85
2023/05/23 08:32:40;;;;;;;;;;;;;;;21.88;46.10;101004.72;5090456;28;20347;-85
2023/05/23 08:35:05;;;;;;;;;;;;;;;21.86;46.17;100994.06;5043349;28;19999;-83
2023/05/23 08:37:31;;;;;;;;;;;;;;;21.79;46.28;100992.22;5091666;28;20366;-85
2023/05/23 08:39:56;;;;;;;;;;;;;;;21.83;46.14;101004.69;5088430;28;19920;-85
2023/05/23 08:42:22;;;;;;;;;;;;;;;21.93;46.01;100997.72;5091054;28;19941;-84
2023/05/23 08:44:47;;;;;;;;;;;;;;;21.90;45.98;101001.19;5091151;28;20300;-85
2023/05/23 08:47:12;;;;;;;;;;;;;;;21.83;46.06;100990.50;5091495;28;20415;-84
2023/05/23 08:49:38;;;;;;;;;;;;;;;21.87;46.07;100994.97;5072782;28;20424;-84
2023/05/23 08:52:04;;;;;;;;;;;;;;;21.79;46.19;100996.66;5091274;28;20019;-84
2023/05/23 08:54:29;;;;;;;;;;;;;;;21.80;46.14;100991.34;5089241;28;19970;-83
2023/05/23 08:56:54;;;;;;;;;;;;;;;21.84;46.02;100995.81;5090784;28;19920;-84
2023/05/23 08:59:20;;;;;;;;;;;;;;;21.95;45.80;101001.28;5070953;28;19920;-83
2023/05/23 09:01:47;;;;;;;;;;;;;;;21.97;45.80;101002.19;5073034;28;20336;-84
2023/05/23 09:04:12;;;;;;;;;;;;;;;21.99;45.68;100996.84;5072698;28;19928;-84
2023/05/23 09:06:37;;;;;;;;;;;;;;;22.01;45.79;100997.78;5091212;28;20336;-84
2023/05/23 09:09:03;;;;;;;;;;;;;;;21.85;46.07;101000.28;5071533;28;19939;-84
2023/05/23 09:11:29;;;;;;;;;;;;;;;21.96;45.89;100992.41;5087354;28;20404;-84
2023/05/23 09:13:54;;;;;;;;;;;;;;;21.83;46.03;100999.34;5086040;28;19916;-84
2023/05/23 09:16:20;;;;;;;;;;;;;;;21.91;46.01;101005.66;5072574;28;19919;-84
2023/05/23 09:18:46;;;;;;;;;;;;;;;21.93;45.71;101001.25;5089836;28;19912;-85
2023/05/23 09:21:12;;;;;;;;;;;;;;;22.04;45.60;101009.34;5091383;28;19920;-84
2023/05/23 09:23:39;;;;;;;;;;;;;;;22.11;45.53;101007.63;5090791;28;19920;-85
2023/05/23 09:26:05;;;;;;;;;;;;;;;22.17;45.30;101000.59;5069934;28;19916;-84
2023/05/23 09:28:34;;;;;;;;;;;;;;;21.98;45.64;101000.41;5070449;28;20358;-84
2023/05/23 09:31:00;;;;;;;;;;;;;;;21.96;45.61;100995.94;5090960;28;20021;-84
2023/05/23 09:33:36;;;;;;;;;;;;;;;21.96;45.62;101000.38;5090550;28;19912;-84
2023/05/23 09:36:02;;;;;;;;;;;;;;;22.05;45.56;100999.59;5079237;28;19942;-85
2023/05/23 09:38:28;;;;;;;;;;;;;;;22.03;45.64;101004.88;5089482;28;19989;-85
2023/05/23 09:40:55;;;;;;;;;;;;;;;22.11;45.47;101011.19;5087077;28;19985;-85
2023/05/23 09:43:20;;;;;;;;;;;;;;;22.04;45.60;101012.00;5090962;28;19912;-84
2023/05/23 09:45:45;;;;;;;;;;;;;;;21.93;45.88;101000.38;5072983;28;19918;-84
2023/05/23 09:48:12;;;;;;;;;;;;;;;22.06;45.81;100999.63;5090890;28;20021;-84
2023/05/23 09:50:38;;;;;;;;;;;;;;;22.07;45.68;100993.41;5092565;28;19951;-85
2023/05/23 09:53:04;;;;;;;;;;;;;;;22.18;45.37;100996.16;5094957;28;20416;-85
2023/05/23 09:55:29;;;;;;;;;;;;;;;22.27;45.19;100987.44;5094909;28;19920;-84
2023/05/23 09:57:55;;;;;;;;;;;;;;;22.11;45.59;100991.69;5076538;28;19912;-82
2023/05/23 10:00:21;;;;;;;;;;;;;;;22.07;45.53;100984.53;5069318;28;20006;-83
2023/05/23 10:02:52;;;;;;;;;;;;;;;22.14;45.46;100987.28;5094631;28;19916;-83
2023/05/23 10:05:32;;;;;;;;;;;;;;;22.09;45.62;100975.69;5094561;28;19931;-85
2023/05/23 10:08:02;;;;;;;;;;;;;;;22.04;45.70;100976.53;5076742;28;19923;-85
2023/05/23 10:10:29;;;;;;;;;;;;;;;22.12;45.64;100982.84;5093736;28;19974;-84
2023/05/23 10:12:55;;;;;;;;;;;;;;;22.15;45.43;100986.41;5066696;28;19919;-84
2023/05/23 10:15:20;;;;;;;;;;;;;;;22.16;45.41;100989.94;5091145;28;19912;-85
2023/05/23 10:17:45;;;;;;;;;;;;;;;22.07;45.53;100988.09;5093601;28;19916;-85
2023/05/23 10:20:12;;;;;;;;;;;;;;;22.15;45.39;100978.41;5094629;28;20400;-85
2023/05/23 10:22:37;;;;;;;;;;;;;;;22.10;45.41;100982.81;5066593;28;19916;-85
2023/05/23 10:25:07;;;;;;;;;;;;;;;22.11;45.42;100994.34;5070222;28;19974;-85
2023/05/23 10:27:33;;;;;;;;;;;;;;;22.05;45.55;100989.84;5089139;28;20386;-85
2023/05/23 10:30:01;;;;;;;;;;;;;;;22.15;45.35;100990.84;5094336;28;19919;-85
2023/05/23 10:32:26;;;;;;;;;;;;;;;22.22;45.17;100995.31;5093261;28;19939;-85
2023/05/23 10:35:10;;;;;;;;;;;;;;;22.17;45.12;100989.97;5076046;28;20328;-85
2023/05/23 10:38:02;;;;;;;;;;;;;;;22.18;45.15;100990.84;5088696;28;20344;-86
2023/05/23 10:40:31;;;;;;;;;;;;;;;22.11;45.33;100986.34;5037001;28;19962;-85
2023/05/23 10:43:00;;;;;;;;;;;;;;;22.17;45.18;100994.41;5093614;28;19935;-86
2023/05/23 10:45:27;;;;;;;;;;;;;;;22.20;45.06;100994.41;5092754;28;20359;-86
2023/05/23 10:47:52;;;;;;;;;;;;;;;22.12;45.21;100997.03;5093411;28;20034;-84
2023/05/23 10:50:31;;;;;;;;;;;;;;;22.29;45.08;101001.66;5075634;28;20369;-84
2023/05/23 10:52:58;;;;;;;;;;;;;;;22.15;45.16;100998.81;5093009;28;19920;-84
2023/05/23 10:55:23;;;;;;;;;;;;;;;22.09;45.31;100996.97;5092399;28;20463;-85
2023/05/23 10:58:08;;;;;;;;;;;;;;;22.14;45.20;100997.03;5093819;28;19912;-83
2023/05/23 11:00:34;;;;;;;;;;;;;;;22.09;45.25;100991.66;5067261;28;20351;-84
2023/05/23 11:03:00;;;;;;;;;;;;;;;22.17;45.08;100989.09;5087976;28;20396;-85
2023/05/23 11:05:27;;;;;;;;;;;;;;;22.19;45.09;100987.31;5066147;28;19916;-84
2023/05/23 11:08:16;;;;;;;;;;;;;;;22.22;45.11;100990.00;5058312;28;19924;-83
2023/05/23 11:10:51;;;;;;;;;;;;;;;22.31;44.75;100990.16;5076125;28;19912;-85
2023/05/23 11:15:43;;;;;;;;;;;;;;;22.24;44.95;100980.31;5069826;28;19916;-82
2023/05/23 11:18:10;;;;;;;;;;;;;;;22.29;44.94;100985.69;5093133;28;19962;-85
2023/05/23 11:20:36;;;;;;;;;;;;;;;22.17;45.38;100986.41;5093896;28;19919;-84
2023/05/23 11:23:02;;;;;;;;;;;;;;;22.20;45.40;100990.88;5100956;28;20293;-84
2023/05/23 11:25:55;;;;;;;;;;;;;;;22.22;45.24;100997.97;5082816;28;20278;-85
2023/05/23 11:28:22;;;;;;;;;;;;;;;22.38;45.14;100998.19;5087188;28;19920;-85
2023/05/23 11:30:48;;;;;;;;;;;;;;;22.24;45.07;100993.59;5047314;28;20404;-83
2023/05/23 11:33:15;;;;;;;;;;;;;;;22.32;45.13;101005.22;5071493;28;19916;-83
2023/05/23 11:35:44;;;;;;;;;;;;;;;22.28;45.11;100998.06;5091322;28;19912;-83
2023/05/23 11:38:10;;;;;;;;;;;;;;;22.19;45.40;101000.63;5074939;28;19912;-83
2023/05/23 11:40:39;;;;;;;;;;;;;;;22.19;45.24;101003.28;5092355;28;20389;-83
2023/05/23 11:43:05;;;;;;;;;;;;;;;22.33;45.08;101003.44;5074139;28;19912;-84
2023/05/23 11:45:31;;;;;;;;;;;;;;;22.32;44.93;101007.00;5072988;28;20286;-83
2023/05/23 11:47:56;;;;;;;;;;;;;;;22.25;44.78;100982.09;5092033;28;19923;-81
2023/05/23 11:50:23;;;;;;;;;;;;;;;22.33;44.95;101011.44;5067750;28;19923;-84
2023/05/23 11:52:52;;;;;;;;;;;;;;;22.27;45.15;101011.41;5066155;28;20007;-85
2023/05/23 11:55:20;;;;;;;;;;;;;;;22.26;45.02;101017.56;5089160;28;20417;-84
2023/05/23 11:57:46;;;;;;;;;;;;;;;22.34;44.85;101013.22;5074419;28;19912;-84
2023/05/23 12:00:12;;;;;;;;;;;;;;;22.26;44.96;101017.56;5090780;28;19920;-83
2023/05/23 12:02:40;;;;;;;;;;;;;;;22.28;44.89;101011.38;5091197;28;19970;-84
2023/05/23 12:05:07;;;;;;;;;;;;;;;22.26;44.96;101025.56;5072580;28;20385;-83
2023/05/23 12:07:32;;;;;;;;;;;;;;;22.32;45.01;101030.94;5071744;28;19963;-81
2023/05/23 12:09:58;;;;;;;;;;;;;;;22.32;44.87;101033.59;5071694;28;19959;-84
2023/05/23 12:12:23;;;;;;;;;;;;;;;22.40;44.61;101033.69;5072229;28;19916;-83
2023/05/23 12:14:49;;;;;;;;;;;;;;;22.28;44.94;101035.34;5071942;28;20014;-83
2023/05/23 12:17:14;;;;;;;;;;;;;;;22.30;44.95;101035.34;5091827;28;19954;-83
2023/05/23 12:19:44;;;;;;;;;;;;;;;22.30;44.82;101036.25;5070307;28;20404;-84
2023/05/23 12:22:09;;;;;;;;;;;;;;;22.28;44.88;101031.78;5086584;28;20420;-84
2023/05/23 12:24:35;;;;;;;;;;;;;;;22.27;44.93;101030.91;5090084;28;19912;-84
2023/05/23 12:27:01;;;;;;;;;;;;;;;22.22;45.05;101026.38;5090527;28;20408;-84
2023/05/23 12:29:28;;;;;;;;;;;;;;;22.34;44.71;101030.06;5091146;28;19912;-83
2023/05/23 12:31:53;;;;;;;;;;;;;;;22.38;44.66;101025.69;5089819;28;19919;-84
2023/05/23 12:34:19;;;;;;;;;;;;;;;22.28;44.89;101019.38;5066369;28;20420;-84
2023/05/23 12:36:47;;;;;;;;;;;;;;;22.24;44.87;101012.22;5071314;28;19966;-84
2023/05/23 12:39:13;;;;;;;;;;;;;;;22.43;44.61;101017.75;5092083;28;20012;-84